createdAt,value
2018-04-23T00:00:39.510Z,4.00
2018-04-23T00:01:39.532Z,4.00
2018-04-23T00:02:39.549Z,4.00
2018-04-23T00:03:39.566Z,4.00
2018-04-23T00:04:39.587Z,4.00
2018-04-23T00:05:39.599Z,4.00
2018-04-23T00:06:39.621Z,4.00
2018-04-23T00:07:39.634Z,4.00
2018-04-23T00:08:39.651Z,4.00
2018-04-23T00:09:39.666Z,4.00
2018-04-23T00:10:39.688Z,4.00
2018-04-23T00:11:39.705Z,4.00
2018-04-23T00:12:39.728Z,4.00
2018-04-23T00:13:39.741Z,4.00
2018-04-23T00:14:39.749Z,4.00
2018-04-23T00:15:39.772Z,4.00
2018-04-23T00:16:40.379Z,4.00
2018-04-23T00:17:39.807Z,4.00
2018-04-23T00:18:39.826Z,4.00
2018-04-23T00:20:39.859Z,4.00
2018-04-23T00:21:39.915Z,4.00
2018-04-23T00:22:39.893Z,4.00
2018-04-23T00:23:39.910Z,4.00
2018-04-23T00:24:39.926Z,4.00
2018-04-23T00:25:39.943Z,4.00
2018-04-23T00:26:39.960Z,4.00
2018-04-23T00:27:39.976Z,4.00
2018-04-23T00:28:39.994Z,4.00
2018-04-23T00:29:40.022Z,4.00
2018-04-23T00:30:40.030Z,4.00
2018-04-23T00:31:40.048Z,4.00
2018-04-23T00:32:40.071Z,4.00
2018-04-23T00:33:40.147Z,4.00
2018-04-23T00:35:40.391Z,4.00
2018-04-23T00:36:40.702Z,4.00
2018-04-23T00:37:40.153Z,4.00
2018-04-23T00:38:40.172Z,4.00
2018-04-23T00:39:40.188Z,4.00
2018-04-23T00:40:40.208Z,4.00
2018-04-23T00:41:40.223Z,4.00
2018-04-23T00:42:40.240Z,4.00
2018-04-23T00:43:40.259Z,4.00
2018-04-23T00:44:40.276Z,4.00
2018-04-23T00:45:40.292Z,4.00
2018-04-23T00:46:40.312Z,4.00
2018-04-23T00:47:40.328Z,0.00
2018-04-23T00:48:40.345Z,4.00
2018-04-23T00:49:40.387Z,4.00
2018-04-23T00:50:40.386Z,4.00
2018-04-23T00:51:40.399Z,4.00
2018-04-23T00:52:40.435Z,4.00
2018-04-23T00:53:40.449Z,4.00
2018-04-23T00:54:40.849Z,4.00
2018-04-23T00:55:40.486Z,4.00
2018-04-23T00:56:40.485Z,4.00
2018-04-23T00:57:40.508Z,4.00
2018-04-23T00:58:40.523Z,4.00
2018-04-23T00:59:40.537Z,4.00
2018-04-23T01:00:40.555Z,4.00
2018-04-23T01:01:40.579Z,4.00
2018-04-23T01:02:40.588Z,4.00
2018-04-23T01:03:40.606Z,4.00
2018-04-23T01:04:40.622Z,4.00
2018-04-23T01:05:40.638Z,4.00
2018-04-23T01:06:40.663Z,4.00
2018-04-23T01:07:40.674Z,4.00
2018-04-23T01:09:40.711Z,4.00
2018-04-23T01:10:40.725Z,4.00
2018-04-23T01:11:40.747Z,4.00
2018-04-23T01:12:40.760Z,4.00
2018-04-23T01:13:40.777Z,4.00
2018-04-23T01:14:40.793Z,4.00
2018-04-23T01:15:40.812Z,4.00
2018-04-23T01:16:40.832Z,4.00
2018-04-23T01:17:40.845Z,4.00
2018-04-23T01:18:40.874Z,4.00
2018-04-23T01:19:40.881Z,4.00
2018-04-23T01:20:40.900Z,4.00
2018-04-23T01:21:40.918Z,4.00
2018-04-23T01:22:40.934Z,4.00
2018-04-23T01:23:40.956Z,4.00
2018-04-23T01:24:40.969Z,4.00
2018-04-23T01:25:41.255Z,4.00
2018-04-23T01:26:41.061Z,4.00
2018-04-23T01:27:41.179Z,4.00
2018-04-23T01:28:41.119Z,4.00
2018-04-23T01:29:41.054Z,4.00
2018-04-23T01:30:41.071Z,4.00
2018-04-23T01:31:41.089Z,4.00
2018-04-23T01:32:41.106Z,4.00
2018-04-23T01:33:41.127Z,4.00
2018-04-23T01:34:41.141Z,4.00
2018-04-23T01:35:41.161Z,4.00
2018-04-23T01:36:41.181Z,4.00
2018-04-23T01:37:41.193Z,4.00
2018-04-23T01:38:41.214Z,4.00
2018-04-23T01:39:41.239Z,4.00
2018-04-23T01:40:41.247Z,4.00
2018-04-23T01:41:41.338Z,4.00
2018-04-23T01:42:41.475Z,4.00
2018-04-23T01:43:41.300Z,4.00
2018-04-23T01:44:41.314Z,4.00
2018-04-23T01:45:41.331Z,4.00
2018-04-23T01:46:41.348Z,4.00
2018-04-23T01:47:41.372Z,4.00
2018-04-23T01:48:41.401Z,4.00
2018-04-23T01:49:41.400Z,4.00
2018-04-23T01:50:41.418Z,4.00
2018-04-23T01:51:41.435Z,4.00
2018-04-23T01:52:41.453Z,4.00
2018-04-23T01:53:41.470Z,4.00
2018-04-23T01:54:41.487Z,4.00
2018-04-23T01:55:41.505Z,4.00
2018-04-23T01:56:41.577Z,4.00
2018-04-23T01:57:41.599Z,4.00
2018-04-23T01:58:41.556Z,4.00
2018-04-23T01:59:41.575Z,4.00
2018-04-23T02:00:41.617Z,4.00
2018-04-23T02:01:41.620Z,4.00
2018-04-23T02:02:41.652Z,4.00
2018-04-23T02:03:41.646Z,4.00
2018-04-23T02:04:41.679Z,4.00
2018-04-23T02:05:41.682Z,4.00
2018-04-23T02:06:41.695Z,4.00
2018-04-23T02:07:41.712Z,4.00
2018-04-23T02:08:41.749Z,4.00
2018-04-23T02:09:41.746Z,4.00
2018-04-23T02:10:41.769Z,4.00
2018-04-23T02:11:41.781Z,4.00
2018-04-23T02:12:41.798Z,4.00
2018-04-23T02:13:42.110Z,4.00
2018-04-23T02:14:41.849Z,4.00
2018-04-23T02:15:41.849Z,4.00
2018-04-23T02:16:41.869Z,4.00
2018-04-23T02:17:41.886Z,4.00
2018-04-23T02:18:41.902Z,4.00
2018-04-23T02:19:41.928Z,4.00
2018-04-23T02:20:41.936Z,4.00
2018-04-23T02:21:41.959Z,4.00
2018-04-23T02:22:41.971Z,4.00
2018-04-23T02:23:41.993Z,4.00
2018-04-23T02:24:42.022Z,4.00
2018-04-23T02:25:42.023Z,4.00
2018-04-23T02:26:42.041Z,4.00
2018-04-23T02:27:42.059Z,4.00
2018-04-23T02:28:42.077Z,4.00
2018-04-23T02:29:42.099Z,4.00
2018-04-23T02:30:42.222Z,4.00
2018-04-23T02:31:42.341Z,4.00
2018-04-23T02:32:42.146Z,4.00
2018-04-23T02:33:42.167Z,4.00
2018-04-23T02:34:42.281Z,4.00
2018-04-23T02:35:42.299Z,4.00
2018-04-23T02:36:42.282Z,4.00
2018-04-23T02:37:42.281Z,4.00
2018-04-23T02:38:42.252Z,4.00
2018-04-23T02:39:42.266Z,4.00
2018-04-23T02:40:42.285Z,4.00
2018-04-23T02:41:42.827Z,4.00
2018-04-23T02:42:42.489Z,4.00
2018-04-23T02:43:42.489Z,4.00
2018-04-23T02:45:42.371Z,4.00
2018-04-23T02:46:42.392Z,4.00
2018-04-23T02:47:42.411Z,4.00
2018-04-23T02:48:42.425Z,4.00
2018-04-23T02:49:42.441Z,4.00
2018-04-23T02:50:42.455Z,4.00
2018-04-23T02:51:42.474Z,4.00
2018-04-23T02:52:42.491Z,4.00
2018-04-23T02:53:42.509Z,4.00
2018-04-23T02:54:42.524Z,4.00
2018-04-23T02:55:42.549Z,4.00
2018-04-23T02:56:42.565Z,4.00
2018-04-23T02:57:42.577Z,4.00
2018-04-23T02:58:42.599Z,4.00
2018-04-23T02:59:42.612Z,4.00
2018-04-23T03:00:42.630Z,4.00
2018-04-23T03:01:42.703Z,4.00
2018-04-23T03:02:42.877Z,4.00
2018-04-23T03:04:43.355Z,4.00
2018-04-23T03:05:42.716Z,4.00
2018-04-23T03:06:42.733Z,4.00
2018-04-23T03:07:42.751Z,4.00
2018-04-23T03:08:42.767Z,4.00
2018-04-23T03:09:42.789Z,4.00
2018-04-23T03:10:42.866Z,4.00
2018-04-23T03:11:42.851Z,4.00
2018-04-23T03:12:43.029Z,4.00
2018-04-23T03:13:42.860Z,4.00
2018-04-23T03:14:42.870Z,4.00
2018-04-23T03:15:43.021Z,4.00
2018-04-23T03:16:42.918Z,4.00
2018-04-23T03:17:43.368Z,4.00
2018-04-23T03:18:42.939Z,4.00
2018-04-23T03:19:42.959Z,4.00
2018-04-23T03:20:42.976Z,4.00
2018-04-23T03:21:43.004Z,4.00
2018-04-23T03:22:43.022Z,4.00
2018-04-23T03:23:43.038Z,4.00
2018-04-23T03:24:43.042Z,4.00
2018-04-23T03:25:43.060Z,4.00
2018-04-23T03:26:43.077Z,4.00
2018-04-23T03:27:43.094Z,4.00
2018-04-23T03:28:43.112Z,4.00
2018-04-23T03:29:43.130Z,4.00
2018-04-23T03:30:43.145Z,4.00
2018-04-23T03:31:43.168Z,4.00
2018-04-23T03:32:43.179Z,4.00
2018-04-23T03:33:43.198Z,4.00
2018-04-23T03:34:43.214Z,4.00
2018-04-23T03:35:43.232Z,4.00
2018-04-23T03:36:43.341Z,4.00
2018-04-23T03:37:43.264Z,4.00
2018-04-23T03:38:43.287Z,4.00
2018-04-23T03:39:43.305Z,4.00
2018-04-23T03:40:43.325Z,4.00
2018-04-23T03:41:43.335Z,4.00
2018-04-23T03:42:43.432Z,4.00
2018-04-23T03:43:43.410Z,4.00
2018-04-23T03:44:43.387Z,4.00
2018-04-23T03:45:43.402Z,4.00
2018-04-23T03:46:43.419Z,4.00
2018-04-23T03:47:43.627Z,4.00
2018-04-23T03:48:43.467Z,4.00
2018-04-23T03:49:43.994Z,0.00
2018-04-23T03:50:43.854Z,4.00
2018-04-23T03:51:43.506Z,4.00
2018-04-23T03:52:43.524Z,4.00
2018-04-23T03:53:43.561Z,4.00
2018-04-23T03:54:43.559Z,8.00
2018-04-23T03:55:43.583Z,4.00
2018-04-23T03:56:43.590Z,8.00
2018-04-23T03:57:43.654Z,4.00
2018-04-23T03:58:43.626Z,8.00
2018-04-23T03:59:43.646Z,8.00
2018-04-23T04:00:43.659Z,12.00
2018-04-23T04:01:43.682Z,8.00
2018-04-23T04:02:43.698Z,8.00
2018-04-23T04:03:43.712Z,8.00
2018-04-23T04:04:43.726Z,8.00
2018-04-23T04:05:43.752Z,12.00
2018-04-23T04:06:43.760Z,12.00
2018-04-23T04:07:44.104Z,16.00
2018-04-23T04:08:43.806Z,16.00
2018-04-23T04:09:43.811Z,16.00
2018-04-23T04:10:43.829Z,16.00
2018-04-23T04:11:43.846Z,16.00
2018-04-23T04:12:43.862Z,20.00
2018-04-23T04:13:43.909Z,24.00
2018-04-23T04:14:43.899Z,24.00
2018-04-23T04:15:43.991Z,24.00
2018-04-23T04:16:43.939Z,28.00
2018-04-23T04:17:43.946Z,28.00
2018-04-23T04:18:44.014Z,36.00
2018-04-23T04:19:44.147Z,44.00
2018-04-23T04:20:43.999Z,48.00
2018-04-23T04:22:44.307Z,64.00
2018-04-23T04:23:44.051Z,72.00
2018-04-23T04:24:44.561Z,72.00
2018-04-23T04:25:44.094Z,76.00
2018-04-23T04:26:44.102Z,76.00
2018-04-23T04:27:44.120Z,80.00
2018-04-23T04:28:44.145Z,84.00
2018-04-23T04:29:44.154Z,92.00
2018-04-23T04:30:44.169Z,104.00
2018-04-23T04:31:44.186Z,116.00
2018-04-23T04:32:44.203Z,120.00
2018-04-23T04:33:44.223Z,116.00
2018-04-23T04:34:44.238Z,112.00
2018-04-23T04:35:44.280Z,112.00
2018-04-23T04:36:44.280Z,104.00
2018-04-23T04:37:44.287Z,100.00
2018-04-23T04:38:44.302Z,92.00
2018-04-23T04:39:44.321Z,88.00
2018-04-23T04:40:44.405Z,88.00
2018-04-23T04:41:44.605Z,88.00
2018-04-23T04:42:44.641Z,92.00
2018-04-23T04:43:44.729Z,96.00
2018-04-23T04:44:44.745Z,104.00
2018-04-23T04:45:44.775Z,108.00
2018-04-23T04:46:44.630Z,112.00
2018-04-23T04:47:44.461Z,116.00
2018-04-23T04:48:44.479Z,124.00
2018-04-23T04:49:44.491Z,124.00
2018-04-23T04:50:44.518Z,124.00
2018-04-23T04:51:44.525Z,128.00
2018-04-23T04:52:44.544Z,136.00
2018-04-23T04:53:44.590Z,152.00
2018-04-23T04:54:44.580Z,168.00
2018-04-23T04:55:44.671Z,200.00
2018-04-23T04:56:44.892Z,236.00
2018-04-23T04:57:44.626Z,260.00
2018-04-23T04:58:44.687Z,284.00
2018-04-23T04:59:44.747Z,296.00
2018-04-23T05:00:44.699Z,316.00
2018-04-23T05:01:44.695Z,328.00
2018-04-23T05:02:44.713Z,332.00
2018-04-23T05:03:44.727Z,316.00
2018-04-23T05:04:44.755Z,312.00
2018-04-23T05:06:44.784Z,312.00
2018-04-23T05:07:44.796Z,332.00
2018-04-23T05:08:44.817Z,372.00
2018-04-23T05:09:44.833Z,412.00
2018-04-23T05:10:44.858Z,440.00
2018-04-23T05:11:44.891Z,464.00
2018-04-23T05:12:44.895Z,484.00
2018-04-23T05:13:44.898Z,492.00
2018-04-23T05:14:44.956Z,504.00
2018-04-23T05:15:44.932Z,516.00
2018-04-23T05:16:44.963Z,504.00
2018-04-23T05:17:44.969Z,508.00
2018-04-23T05:18:44.982Z,508.00
2018-04-23T05:19:45.054Z,508.00
2018-04-23T05:20:45.023Z,524.00
2018-04-23T05:21:45.034Z,552.00
2018-04-23T05:22:45.051Z,592.00
2018-04-23T05:23:45.149Z,624.00
2018-04-23T05:24:45.088Z,656.00
2018-04-23T05:25:45.934Z,696.00
2018-04-23T05:26:45.123Z,756.00
2018-04-23T05:27:45.142Z,804.00
2018-04-23T05:28:45.155Z,848.00
2018-04-23T05:29:45.250Z,900.00
2018-04-23T05:30:45.191Z,948.00
2018-04-23T05:31:45.205Z,1000.00
2018-04-23T05:32:45.221Z,1060.00
2018-04-23T05:33:45.258Z,1100.00
2018-04-23T05:34:45.278Z,1104.00
2018-04-23T05:35:45.327Z,1120.00
2018-04-23T05:36:45.288Z,1140.00
2018-04-23T05:37:45.309Z,1152.00
2018-04-23T05:38:45.324Z,1164.00
2018-04-23T05:39:45.816Z,1096.00
2018-04-23T05:40:45.363Z,1172.00
2018-04-23T05:41:45.486Z,1200.00
2018-04-23T05:42:45.918Z,1196.00
2018-04-23T05:43:45.415Z,1172.00
2018-04-23T05:44:45.429Z,1184.00
2018-04-23T05:45:45.445Z,1172.00
2018-04-23T05:46:45.752Z,1172.00
2018-04-23T05:47:45.657Z,1168.00
2018-04-23T05:48:45.826Z,1144.00
2018-04-23T05:49:45.513Z,1116.00
2018-04-23T05:50:45.787Z,1112.00
2018-04-23T05:51:45.658Z,1132.00
2018-04-23T05:52:45.561Z,1144.00
2018-04-23T05:53:45.577Z,1160.00
2018-04-23T05:54:45.615Z,1168.00
2018-04-23T05:55:45.632Z,1172.00
2018-04-23T05:56:45.629Z,1144.00
2018-04-23T05:57:45.642Z,1152.00
2018-04-23T05:58:45.661Z,1168.00
2018-04-23T05:59:45.677Z,1188.00
2018-04-23T06:00:45.749Z,1212.00
2018-04-23T06:01:45.955Z,1240.00
2018-04-23T06:02:45.729Z,1240.00
2018-04-23T06:03:45.776Z,1232.00
2018-04-23T06:04:45.814Z,1244.00
2018-04-23T06:05:46.814Z,1240.00
2018-04-23T06:06:46.450Z,1260.00
2018-04-23T06:07:46.163Z,1360.00
2018-04-23T06:08:45.836Z,1368.00
2018-04-23T06:09:45.845Z,1300.00
2018-04-23T06:10:45.862Z,1276.00
2018-04-23T06:11:45.877Z,1216.00
2018-04-23T06:12:45.949Z,1180.00
2018-04-23T06:13:46.414Z,1172.00
2018-04-23T06:14:45.930Z,1216.00
2018-04-23T06:15:45.948Z,1304.00
2018-04-23T06:16:45.963Z,1356.00
2018-04-23T06:17:45.978Z,1360.00
2018-04-23T06:18:45.999Z,1360.00
2018-04-23T06:19:46.035Z,1372.00
2018-04-23T06:20:46.056Z,1444.00
2018-04-23T06:21:46.046Z,1548.00
2018-04-23T06:22:46.064Z,1652.00
2018-04-23T06:23:46.078Z,1696.00
2018-04-23T06:24:46.094Z,1840.00
2018-04-23T06:25:46.134Z,1796.00
2018-04-23T06:26:46.128Z,1704.00
2018-04-23T06:27:46.518Z,1828.00
2018-04-23T06:28:46.165Z,1924.00
2018-04-23T06:29:46.178Z,2028.00
2018-04-23T06:30:46.207Z,1996.00
2018-04-23T06:31:46.213Z,1928.00
2018-04-23T06:32:46.250Z,2176.00
2018-04-23T06:33:46.264Z,1812.00
2018-04-23T06:34:46.369Z,1792.00
2018-04-23T06:37:46.337Z,1808.00
2018-04-23T06:38:46.326Z,1748.00
2018-04-23T06:39:46.345Z,1672.00
2018-04-23T06:40:46.390Z,1632.00
2018-04-23T06:41:46.376Z,1552.00
2018-04-23T06:42:46.450Z,1504.00
2018-04-23T06:45:46.938Z,1260.00
2018-04-23T06:46:46.711Z,1188.00
2018-04-23T06:47:46.475Z,1144.00
2018-04-23T06:48:46.492Z,1220.00
2018-04-23T06:49:46.508Z,1236.00
2018-04-23T06:50:46.526Z,1260.00
2018-04-23T06:51:46.544Z,1336.00
2018-04-23T06:53:46.824Z,1480.00
2018-04-23T06:54:46.595Z,1532.00
2018-04-23T06:55:46.613Z,1428.00
2018-04-23T06:56:46.631Z,1316.00
2018-04-23T06:57:46.664Z,1284.00
2018-04-23T06:58:46.675Z,1272.00
2018-04-23T06:59:46.681Z,1176.00
2018-04-23T07:00:46.695Z,1144.00
2018-04-23T07:01:46.746Z,1176.00
2018-04-23T07:02:46.862Z,1196.00
2018-04-23T07:03:46.762Z,1180.00
2018-04-23T07:04:48.565Z,1184.00
2018-04-23T07:05:46.794Z,1296.00
2018-04-23T07:06:46.810Z,1376.00
2018-04-23T07:07:46.838Z,1436.00
2018-04-23T07:08:47.897Z,1464.00
2018-04-23T07:10:47.180Z,1488.00
2018-04-23T07:11:46.887Z,1640.00
2018-04-23T07:12:50.130Z,1520.00
2018-04-23T07:13:49.914Z,1440.00
2018-04-23T07:14:49.158Z,1468.00
2018-04-23T07:15:49.409Z,1352.00
2018-04-23T07:16:49.595Z,1388.00
2018-04-23T07:17:50.065Z,1380.00
2018-04-23T07:18:47.835Z,1360.00
2018-04-23T07:19:47.019Z,1372.00
2018-04-23T07:20:48.572Z,1376.00
2018-04-23T07:21:48.386Z,1724.00
2018-04-23T07:22:49.358Z,1724.00
2018-04-23T07:24:48.771Z,1892.00
2018-04-23T07:25:48.883Z,1840.00
2018-04-23T07:26:47.809Z,1980.00
2018-04-23T07:27:47.155Z,1908.00
2018-04-23T07:28:47.188Z,1664.00
2018-04-23T07:29:48.958Z,2292.00
2018-04-23T07:30:47.985Z,2176.00
2018-04-23T07:31:49.492Z,2124.00
2018-04-23T07:32:47.901Z,2016.00
2018-04-23T07:33:47.976Z,1968.00
2018-04-23T07:34:49.370Z,1816.00
2018-04-23T07:35:47.379Z,2128.00
2018-04-23T07:37:49.772Z,2520.00
2018-04-23T07:38:48.963Z,2624.00
2018-04-23T07:39:49.965Z,2636.00
2018-04-23T07:40:48.393Z,2656.00
2018-04-23T07:41:49.600Z,2660.00
2018-04-23T07:42:49.189Z,2712.00
2018-04-23T07:43:48.831Z,2712.00
2018-04-23T07:44:49.774Z,2668.00
2018-04-23T07:45:49.763Z,2776.00
2018-04-23T07:46:50.051Z,2744.00
2018-04-23T07:47:50.004Z,2548.00
2018-04-23T07:48:50.447Z,2824.00
2018-04-23T07:49:49.615Z,1684.00
2018-04-23T07:50:48.874Z,2056.00
2018-04-23T07:51:47.616Z,2736.00
2018-04-23T07:52:48.522Z,2880.00
2018-04-23T07:53:48.784Z,2748.00
2018-04-23T07:54:48.879Z,2844.00
2018-04-23T07:55:50.821Z,2792.00
2018-04-23T07:56:50.564Z,2728.00
2018-04-23T07:57:49.137Z,2772.00
2018-04-23T07:58:48.775Z,2904.00
2018-04-23T07:59:51.412Z,2944.00
2018-04-23T08:00:50.722Z,2960.00
2018-04-23T08:01:48.832Z,2944.00
2018-04-23T08:02:48.041Z,2940.00
2018-04-23T08:03:49.473Z,2912.00
2018-04-23T08:04:49.700Z,2952.00
2018-04-23T08:05:48.721Z,2880.00
2018-04-23T08:06:47.997Z,2996.00
2018-04-23T08:07:49.712Z,2748.00
2018-04-23T08:08:49.299Z,3124.00
2018-04-23T08:09:49.222Z,3112.00
2018-04-23T08:10:48.855Z,3152.00
2018-04-23T08:11:47.922Z,3060.00
2018-04-23T08:12:47.944Z,1780.00
2018-04-23T08:13:50.244Z,3048.00
2018-04-23T08:14:49.079Z,2940.00
2018-04-23T08:15:50.012Z,3212.00
2018-04-23T08:16:49.782Z,3356.00
2018-04-23T08:17:50.025Z,2104.00
2018-04-23T08:18:49.365Z,3512.00
2018-04-23T08:19:49.818Z,3748.00
2018-04-23T08:20:49.541Z,3872.00
2018-04-23T08:21:49.241Z,4120.00
2018-04-23T08:22:50.739Z,3980.00
2018-04-23T08:23:50.207Z,2408.00
2018-04-23T08:24:50.565Z,2460.00
2018-04-23T08:25:49.953Z,2552.00
2018-04-23T08:26:49.869Z,2516.00
2018-04-23T08:27:49.459Z,3240.00
2018-04-23T08:28:50.059Z,4356.00
2018-04-23T08:29:50.088Z,4352.00
2018-04-23T08:30:49.935Z,4696.00
2018-04-23T08:31:49.098Z,4488.00
2018-04-23T08:32:48.701Z,3784.00
2018-04-23T08:33:48.294Z,2788.00
2018-04-23T08:34:50.550Z,2588.00
2018-04-23T08:35:49.593Z,2472.00
2018-04-23T08:36:50.096Z,2444.00
2018-04-23T08:37:49.415Z,3308.00
2018-04-23T08:38:50.590Z,4028.00
2018-04-23T08:40:50.438Z,2452.00
2018-04-23T08:41:49.863Z,2552.00
2018-04-23T08:42:50.112Z,4148.00
2018-04-23T08:43:50.161Z,4720.00
2018-04-23T08:44:49.930Z,4972.00
2018-04-23T08:46:50.329Z,3044.00
2018-04-23T08:47:49.934Z,3056.00
2018-04-23T08:48:50.316Z,2876.00
2018-04-23T08:49:49.849Z,4272.00
2018-04-23T08:50:51.227Z,3888.00
2018-04-23T08:51:50.982Z,2672.00
2018-04-23T08:52:50.251Z,2680.00
2018-04-23T08:53:49.579Z,2808.00
2018-04-23T08:54:50.964Z,4844.00
2018-04-23T08:56:50.071Z,5124.00
2018-04-23T08:57:49.863Z,5276.00
2018-04-23T08:58:50.588Z,5228.00
2018-04-23T09:00:50.583Z,5228.00
2018-04-23T09:01:50.677Z,5056.00
2018-04-23T09:02:50.456Z,5292.00
2018-04-23T09:03:50.760Z,5400.00
2018-04-23T09:04:50.856Z,5148.00
2018-04-23T09:05:51.653Z,5132.00
2018-04-23T09:06:50.132Z,4900.00
2018-04-23T09:07:49.712Z,4524.00
2018-04-23T09:08:48.877Z,4900.00
2018-04-23T09:09:50.617Z,4976.00
2018-04-23T09:10:51.102Z,5032.00
2018-04-23T09:11:51.781Z,5132.00
2018-04-23T09:12:50.698Z,5364.00
2018-04-23T09:13:50.860Z,5372.00
2018-04-23T09:14:50.711Z,5372.00
2018-04-23T09:15:51.013Z,5544.00
2018-04-23T09:16:52.137Z,3328.00
2018-04-23T09:17:51.462Z,5444.00
2018-04-23T09:18:51.351Z,3924.00
2018-04-23T09:19:51.473Z,3404.00
2018-04-23T09:20:50.729Z,3536.00
2018-04-23T09:21:50.719Z,3520.00
2018-04-23T09:22:50.069Z,5788.00
2018-04-23T09:23:50.975Z,5260.00
2018-04-23T09:24:50.259Z,5116.00
2018-04-23T09:25:50.716Z,5372.00
2018-04-23T09:26:50.691Z,5392.00
2018-04-23T09:27:51.557Z,5500.00
2018-04-23T09:28:51.815Z,3044.00
2018-04-23T09:29:50.042Z,2904.00
2018-04-23T09:31:51.059Z,2972.00
2018-04-23T09:32:50.045Z,2680.00
2018-04-23T09:33:51.776Z,2672.00
2018-04-23T09:34:50.793Z,4952.00
2018-04-23T09:35:51.474Z,4900.00
2018-04-23T09:36:51.350Z,5100.00
2018-04-23T09:37:52.273Z,3164.00
2018-04-23T09:39:49.810Z,4404.00
2018-04-23T09:40:51.439Z,2648.00
2018-04-23T09:41:50.931Z,2652.00
2018-04-23T09:42:50.367Z,2544.00
2018-04-23T09:43:49.602Z,2500.00
2018-04-23T09:44:49.634Z,2608.00
2018-04-23T09:45:50.062Z,2832.00
2018-04-23T09:46:51.141Z,5132.00
2018-04-23T09:47:52.406Z,5168.00
2018-04-23T09:48:52.023Z,5140.00
2018-04-23T09:49:51.418Z,5220.00
2018-04-23T09:50:50.749Z,5104.00
2018-04-23T09:51:50.492Z,5124.00
2018-04-23T09:52:50.954Z,5164.00
2018-04-23T09:53:50.111Z,3264.00
2018-04-23T09:55:49.716Z,5440.00
2018-04-23T09:56:53.421Z,4248.00
2018-04-23T09:57:51.937Z,5320.00
2018-04-23T09:58:51.688Z,5264.00
2018-04-23T09:59:52.457Z,5296.00
2018-04-23T10:01:51.273Z,5152.00
2018-04-23T10:02:50.772Z,5256.00
2018-04-23T10:03:51.585Z,5404.00
2018-04-23T10:04:51.147Z,5252.00
2018-04-23T10:05:51.395Z,5276.00
2018-04-23T10:06:53.141Z,5332.00
2018-04-23T10:07:52.148Z,5460.00
2018-04-23T10:08:51.853Z,5516.00
2018-04-23T10:09:52.324Z,5372.00
2018-04-23T10:10:51.993Z,5272.00
2018-04-23T10:11:51.987Z,5276.00
2018-04-23T10:12:51.787Z,4592.00
2018-04-23T10:13:51.009Z,4080.00
2018-04-23T10:14:50.096Z,3780.00
2018-04-23T10:15:53.259Z,5360.00
2018-04-23T10:16:52.205Z,3480.00
2018-04-23T10:17:52.334Z,3392.00
2018-04-23T10:18:52.283Z,3448.00
2018-04-23T10:19:51.933Z,4984.00
2018-04-23T10:20:52.670Z,4868.00
2018-04-23T10:22:52.623Z,4608.00
2018-04-23T10:23:51.814Z,4808.00
2018-04-23T10:24:52.207Z,4756.00
2018-04-23T10:25:52.530Z,4932.00
2018-04-23T10:26:53.719Z,3896.00
2018-04-23T10:27:52.992Z,5120.00
2018-04-23T10:28:52.537Z,3100.00
2018-04-23T10:29:52.331Z,3272.00
2018-04-23T10:30:53.017Z,4836.00
2018-04-23T10:31:53.631Z,4424.00
2018-04-23T10:32:53.230Z,5496.00
2018-04-23T10:33:52.080Z,4096.00
2018-04-23T10:34:53.107Z,5228.00
2018-04-23T10:35:52.690Z,4052.00
2018-04-23T10:36:52.271Z,3280.00
2018-04-23T10:37:51.636Z,2900.00
2018-04-23T10:38:52.070Z,2792.00
2018-04-23T10:39:51.805Z,2844.00
2018-04-23T10:40:52.403Z,3008.00
2018-04-23T10:41:51.780Z,3264.00
2018-04-23T10:42:50.600Z,3524.00
2018-04-23T10:43:52.601Z,3736.00
2018-04-23T10:44:52.296Z,5856.00
2018-04-23T10:45:51.773Z,3772.00
2018-04-23T10:46:52.442Z,3564.00
2018-04-23T10:47:52.363Z,3696.00
2018-04-23T10:48:51.026Z,3980.00
2018-04-23T10:49:50.687Z,3896.00
2018-04-23T10:50:50.701Z,5956.00
2018-04-23T10:51:50.740Z,4072.00
2018-04-23T10:52:50.737Z,5780.00
2018-04-23T10:53:51.087Z,4692.00
2018-04-23T10:54:51.004Z,5400.00
2018-04-23T10:55:50.813Z,3652.00
2018-04-23T10:56:50.845Z,5400.00
2018-04-23T10:57:50.834Z,3604.00
2018-04-23T10:58:50.854Z,4688.00
2018-04-23T10:59:50.871Z,3084.00
2018-04-23T11:00:50.883Z,3508.00
2018-04-23T11:01:50.968Z,2596.00
2018-04-23T11:02:50.937Z,2420.00
2018-04-23T11:03:50.953Z,4128.00
2018-04-23T11:04:51.178Z,2308.00
2018-04-23T11:05:50.992Z,2500.00
2018-04-23T11:06:51.056Z,4348.00
2018-04-23T11:08:51.066Z,4384.00
2018-04-23T11:09:51.183Z,4296.00
2018-04-23T11:10:51.063Z,4492.00
2018-04-23T11:11:51.081Z,2876.00
2018-04-23T11:12:51.100Z,4632.00
2018-04-23T11:13:51.116Z,4472.00
2018-04-23T11:14:51.138Z,4064.00
2018-04-23T11:15:51.197Z,4216.00
2018-04-23T11:16:51.203Z,2356.00
2018-04-23T11:17:51.196Z,3324.00
2018-04-23T11:18:51.209Z,4308.00
2018-04-23T11:19:51.233Z,3388.00
2018-04-23T11:20:51.304Z,4248.00
2018-04-23T11:22:51.290Z,4252.00
2018-04-23T11:23:51.300Z,4152.00
2018-04-23T11:25:51.336Z,4308.00
2018-04-23T11:26:51.516Z,4340.00
2018-04-23T11:27:51.400Z,4436.00
2018-04-23T11:28:51.398Z,4564.00
2018-04-23T11:29:51.419Z,4604.00
2018-04-23T11:30:51.425Z,4600.00
2018-04-23T11:31:51.450Z,4744.00
2018-04-23T11:32:51.465Z,4648.00
2018-04-23T11:33:51.480Z,4892.00
2018-04-23T11:34:51.801Z,5056.00
2018-04-23T11:35:51.525Z,5024.00
2018-04-23T11:36:51.536Z,4848.00
2018-04-23T11:37:51.630Z,3036.00
2018-04-23T11:38:51.579Z,2868.00
2018-04-23T11:39:51.602Z,2600.00
2018-04-23T11:40:51.611Z,4364.00
2018-04-23T11:41:51.626Z,4368.00
2018-04-23T11:42:51.644Z,4412.00
2018-04-23T11:43:51.664Z,4424.00
2018-04-23T11:44:51.681Z,4508.00
2018-04-23T11:45:51.705Z,4596.00
2018-04-23T11:46:52.055Z,4608.00
2018-04-23T11:47:51.743Z,4652.00
2018-04-23T11:48:51.753Z,4672.00
2018-04-23T11:50:51.791Z,4784.00
2018-04-23T11:51:51.820Z,4764.00
2018-04-23T11:52:51.928Z,4724.00
2018-04-23T11:53:51.846Z,4752.00
2018-04-23T11:54:51.862Z,4804.00
2018-04-23T11:56:51.901Z,4964.00
2018-04-23T11:57:51.915Z,5016.00
2018-04-23T11:58:51.942Z,5000.00
2018-04-23T11:59:51.959Z,4968.00
2018-04-23T12:00:51.998Z,4940.00
2018-04-23T12:01:51.991Z,4924.00
2018-04-23T12:02:52.007Z,5064.00
2018-04-23T12:03:52.033Z,5288.00
2018-04-23T12:04:52.047Z,5352.00
2018-04-23T12:05:52.149Z,5640.00
2018-04-23T12:06:52.098Z,5948.00
2018-04-23T12:07:52.104Z,6040.00
2018-04-23T12:08:52.123Z,6208.00
2018-04-23T12:09:52.478Z,6528.00
2018-04-23T12:10:52.262Z,6816.00
2018-04-23T12:11:52.179Z,7096.00
2018-04-23T12:12:52.426Z,7028.00
2018-04-23T12:13:52.212Z,7076.00
2018-04-23T12:14:52.273Z,6960.00
2018-04-23T12:15:52.260Z,6980.00
2018-04-23T12:16:52.269Z,6796.00
2018-04-23T12:17:52.288Z,7348.00
2018-04-23T12:18:52.308Z,7012.00
2018-04-23T12:19:52.337Z,7228.00
2018-04-23T12:21:52.523Z,7100.00
2018-04-23T12:22:52.454Z,6960.00
2018-04-23T12:23:52.421Z,7024.00
2018-04-23T12:24:52.670Z,7372.00
2018-04-23T12:25:52.448Z,7388.00
2018-04-23T12:26:52.472Z,7412.00
2018-04-23T12:27:52.808Z,6380.00
2018-04-23T12:28:52.514Z,6256.00
2018-04-23T12:29:52.523Z,6768.00
2018-04-23T12:30:52.562Z,6628.00
2018-04-23T12:31:52.582Z,7004.00
2018-04-23T12:32:52.590Z,6656.00
2018-04-23T12:33:52.690Z,5180.00
2018-04-23T12:34:52.630Z,6544.00
2018-04-23T12:35:52.650Z,6728.00
2018-04-23T12:36:52.715Z,7048.00
2018-04-23T12:37:52.688Z,7048.00
2018-04-23T12:38:52.708Z,7088.00
2018-04-23T12:39:52.728Z,7212.00
2018-04-23T12:40:52.754Z,7820.00
2018-04-23T12:41:52.770Z,9252.00
2018-04-23T12:42:52.815Z,6476.00
2018-04-23T12:43:52.810Z,3732.00
2018-04-23T12:44:52.835Z,3996.00
2018-04-23T12:45:53.321Z,6476.00
2018-04-23T12:46:53.780Z,6864.00
2018-04-23T12:47:52.892Z,5220.00
2018-04-23T12:48:52.929Z,4088.00
2018-04-23T12:49:52.933Z,3904.00
2018-04-23T12:50:52.977Z,3868.00
2018-04-23T12:51:52.986Z,6196.00
2018-04-23T12:52:53.054Z,6348.00
2018-04-23T12:53:53.014Z,5656.00
2018-04-23T12:54:53.131Z,5960.00
2018-04-23T12:55:53.116Z,3780.00
2018-04-23T12:56:53.077Z,4192.00
2018-04-23T12:57:53.181Z,5172.00
2018-04-23T12:59:53.412Z,7064.00
2018-04-23T13:00:53.148Z,7108.00
2018-04-23T13:01:53.168Z,7188.00
2018-04-23T13:02:53.186Z,7264.00